sensor_id;sensor_type;location;lat;lon;timestamp;pressure;altitude;pressure_sealevel;temperature;humidity
1371;BME280;14306;49.942;11.570;2023-04-24T00:00:42;96457.41;;;12.97;91.16
1371;BME280;14306;49.942;11.570;2023-04-24T00:03:13;96451.66;;;12.99;91.47
1371;BME280;14306;49.942;11.570;2023-04-24T00:05:41;96460.25;;;13.01;91.15
1371;BME280;14306;49.942;11.570;2023-04-24T00:08:10;96463.09;;;13.04;90.97
1371;BME280;14306;49.942;11.570;2023-04-24T00:10:39;96456.97;;;12.95;90.53
1371;BME280;14306;49.942;11.570;2023-04-24T00:13:08;96458.66;;;12.88;91.04
1371;BME280;14306;49.942;11.570;2023-04-24T00:15:37;96457.66;;;13.04;90.42
1371;BME280;14306;49.942;11.570;2023-04-24T00:18:06;96456.84;;;12.92;90.77
1371;BME280;14306;49.942;11.570;2023-04-24T00:20:36;96449.16;;;12.94;90.62
1371;BME280;14306;49.942;11.570;2023-04-24T00:23:05;96443.72;;;12.94;90.39
1371;BME280;14306;49.942;11.570;2023-04-24T00:25:34;96452.66;;;12.94;90.34
1371;BME280;14306;49.942;11.570;2023-04-24T00:28:02;96445.97;;;12.92;89.73
1371;BME280;14306;49.942;11.570;2023-04-24T00:30:31;96449.28;;;12.85;89.98
1371;BME280;14306;49.942;11.570;2023-04-24T00:33:00;96447.56;;;12.81;90.04
1371;BME280;14306;49.942;11.570;2023-04-24T00:35:28;96442.81;;;12.90;90.03
1371;BME280;14306;49.942;11.570;2023-04-24T00:37:59;96444.75;;;12.89;90.15
1371;BME280;14306;49.942;11.570;2023-04-24T00:40:28;96438.44;;;12.73;90.69
1371;BME280;14306;49.942;11.570;2023-04-24T00:42:57;96438.75;;;12.72;90.74
1371;BME280;14306;49.942;11.570;2023-04-24T00:45:25;96443.88;;;12.73;90.59
1371;BME280;14306;49.942;11.570;2023-04-24T00:47:53;96447.81;;;12.76;90.36
1371;BME280;14306;49.942;11.570;2023-04-24T00:50:23;96453.34;;;12.67;90.53
1371;BME280;14306;49.942;11.570;2023-04-24T00:52:52;96450.88;;;12.74;90.87
1371;BME280;14306;49.942;11.570;2023-04-24T00:55:22;96463.22;;;12.72;90.17
1371;BME280;14306;49.942;11.570;2023-04-24T00:57:51;96464.69;;;12.69;90.43
1371;BME280;14306;49.942;11.570;2023-04-24T01:00:20;96466.94;;;12.67;90.16
1371;BME280;14306;49.942;11.570;2023-04-24T01:02:50;96457.78;;;12.60;90.43
1371;BME280;14306;49.942;11.570;2023-04-24T01:05:20;96453.94;;;12.49;90.47
1371;BME280;14306;49.942;11.570;2023-04-24T01:07:49;96455.50;;;12.38;91.08
1371;BME280;14306;49.942;11.570;2023-04-24T01:10:17;96450.09;;;12.38;90.90
1371;BME280;14306;49.942;11.570;2023-04-24T01:12:50;96460.03;;;12.22;91.66
1371;BME280;14306;49.942;11.570;2023-04-24T01:15:19;96460.28;;;12.41;90.92
1371;BME280;14306;49.942;11.570;2023-04-24T01:17:47;96460.84;;;12.34;91.44
1371;BME280;14306;49.942;11.570;2023-04-24T01:20:17;96452.22;;;12.32;90.75
1371;BME280;14306;49.942;11.570;2023-04-24T01:22:47;96453.69;;;12.30;91.10
1371;BME280;14306;49.942;11.570;2023-04-24T01:25:16;96449.50;;;12.32;90.82
1371;BME280;14306;49.942;11.570;2023-04-24T01:27:45;96446.56;;;12.37;90.38
1371;BME280;14306;49.942;11.570;2023-04-24T01:30:14;96446.56;;;12.37;90.89
1371;BME280;14306;49.942;11.570;2023-04-24T01:32:43;96448.03;;;12.35;90.77
1371;BME280;14306;49.942;11.570;2023-04-24T01:35:12;96443.75;;;12.34;91.52
1371;BME280;14306;49.942;11.570;2023-04-24T01:37:41;96442.50;;;12.19;91.60
1371;BME280;14306;49.942;11.570;2023-04-24T01:40:12;96440.34;;;12.25;91.32
1371;BME280;14306;49.942;11.570;2023-04-24T01:42:41;96441.03;;;12.22;90.95
1371;BME280;14306;49.942;11.570;2023-04-24T01:45:11;96428.94;;;12.19;91.07
1371;BME280;14306;49.942;11.570;2023-04-24T01:47:39;96441.94;;;12.26;91.88
1371;BME280;14306;49.942;11.570;2023-04-24T01:50:08;96440.78;;;12.15;91.98
1371;BME280;14306;49.942;11.570;2023-04-24T01:52:37;96439.53;;;12.00;92.38
1371;BME280;14306;49.942;11.570;2023-04-24T01:55:07;96440.22;;;12.09;92.23
1371;BME280;14306;49.942;11.570;2023-04-24T01:57:36;96442.09;;;11.97;92.75
1371;BME280;14306;49.942;11.570;2023-04-24T02:00:06;96434.75;;;11.85;92.94
1371;BME280;14306;49.942;11.570;2023-04-24T02:02:35;96444.94;;;11.88;92.60
1371;BME280;14306;49.942;11.570;2023-04-24T02:05:06;96442.09;;;11.97;92.33
1371;BME280;14306;49.942;11.570;2023-04-24T02:07:35;96439.38;;;11.97;92.06
1371;BME280;14306;49.942;11.570;2023-04-24T02:10:04;96441.31;;;11.96;93.00
1371;BME280;14306;49.942;11.570;2023-04-24T02:12:33;96447.66;;;12.00;92.52
1371;BME280;14306;49.942;11.570;2023-04-24T02:15:04;96443.31;;;11.87;92.19
1371;BME280;14306;49.942;11.570;2023-04-24T02:17:33;96443.00;;;11.88;92.58
1371;BME280;14306;49.942;11.570;2023-04-24T02:20:02;96421.81;;;11.70;93.16
1371;BME280;14306;49.942;11.570;2023-04-24T02:22:31;96435.75;;;11.60;93.35
1371;BME280;14306;49.942;11.570;2023-04-24T02:24:59;96436.25;;;11.62;93.10
1371;BME280;14306;49.942;11.570;2023-04-24T02:27:28;96434.59;;;11.49;93.46
1371;BME280;14306;49.942;11.570;2023-04-24T02:29:57;96437.72;;;11.39;94.41
1371;BME280;14306;49.942;11.570;2023-04-24T02:32:26;96436.31;;;11.53;94.23
1371;BME280;14306;49.942;11.570;2023-04-24T02:34:55;96431.59;;;11.62;93.96
1371;BME280;14306;49.942;11.570;2023-04-24T02:37:23;96422.84;;;11.57;94.47
1371;BME280;14306;49.942;11.570;2023-04-24T02:39:51;96432.66;;;11.70;94.28
1371;BME280;14306;49.942;11.570;2023-04-24T02:42:20;96426.63;;;11.97;93.25
1371;BME280;14306;49.942;11.570;2023-04-24T02:44:49;96432.50;;;11.99;93.16
1371;BME280;14306;49.942;11.570;2023-04-24T02:47:18;96426.88;;;12.04;93.26
1371;BME280;14306;49.942;11.570;2023-04-24T02:49:48;96430.47;;;11.96;93.17
1371;BME280;14306;49.942;11.570;2023-04-24T02:52:16;96428.09;;;12.07;92.70
1371;BME280;14306;49.942;11.570;2023-04-24T02:54:45;96414.53;;;12.07;92.91
1371;BME280;14306;49.942;11.570;2023-04-24T02:57:13;96411.34;;;11.93;92.83
1371;BME280;14306;49.942;11.570;2023-04-24T02:59:42;96407.47;;;11.81;93.75
1371;BME280;14306;49.942;11.570;2023-04-24T03:02:11;96419.16;;;12.06;92.42
1371;BME280;14306;49.942;11.570;2023-04-24T03:04:39;96414.53;;;11.95;93.05
1371;BME280;14306;49.942;11.570;2023-04-24T03:07:11;96405.91;;;11.80;93.75
1371;BME280;14306;49.942;11.570;2023-04-24T03:09:41;96403.06;;;11.65;94.70
1371;BME280;14306;49.942;11.570;2023-04-24T03:12:16;96402.69;;;11.66;94.66
1371;BME280;14306;49.942;11.570;2023-04-24T03:14:45;96410.63;;;11.71;94.23
1371;BME280;14306;49.942;11.570;2023-04-24T03:17:13;96412.00;;;11.77;93.79
1371;BME280;14306;49.942;11.570;2023-04-24T03:19:41;96404.69;;;11.90;93.28
1371;BME280;14306;49.942;11.570;2023-04-24T03:22:12;96408.06;;;11.87;93.30
1371;BME280;14306;49.942;11.570;2023-04-24T03:24:40;96404.75;;;11.81;93.69
1371;BME280;14306;49.942;11.570;2023-04-24T03:27:08;96409.09;;;11.95;92.81
1371;BME280;14306;49.942;11.570;2023-04-24T03:29:36;96397.44;;;11.94;93.31
1371;BME280;14306;49.942;11.570;2023-04-24T03:32:04;96406.25;;;11.91;92.98
1371;BME280;14306;49.942;11.570;2023-04-24T03:34:32;96410.91;;;11.91;93.49
1371;BME280;14306;49.942;11.570;2023-04-24T03:37:01;96400.44;;;11.68;93.55
1371;BME280;14306;49.942;11.570;2023-04-24T03:39:31;96403.75;;;11.74;93.43
1371;BME280;14306;49.942;11.570;2023-04-24T03:41:59;96408.59;;;11.68;93.75
1371;BME280;14306;49.942;11.570;2023-04-24T03:44:27;96406.38;;;11.82;93.92
1371;BME280;14306;49.942;11.570;2023-04-24T03:46:57;96406.16;;;12.00;93.23
1371;BME280;14306;49.942;11.570;2023-04-24T03:49:25;96412.00;;;11.89;93.30
1371;BME280;14306;49.942;11.570;2023-04-24T03:51:54;96407.03;;;11.79;93.74
1371;BME280;14306;49.942;11.570;2023-04-24T03:54:22;96405.22;;;11.71;93.58
1371;BME280;14306;49.942;11.570;2023-04-24T03:56:52;96409.28;;;11.89;93.33
1371;BME280;14306;49.942;11.570;2023-04-24T03:59:22;96404.13;;;12.09;92.89
1371;BME280;14306;49.942;11.570;2023-04-24T04:01:50;96413.63;;;12.03;92.64
1371;BME280;14306;49.942;11.570;2023-04-24T04:04:19;96405.41;;;12.11;93.06
1371;BME280;14306;49.942;11.570;2023-04-24T04:06:48;96396.09;;;12.00;92.63
1371;BME280;14306;49.942;11.570;2023-04-24T04:09:16;96409.66;;;11.88;92.77
1371;BME280;14306;49.942;11.570;2023-04-24T04:11:45;96412.16;;;11.93;93.50
1371;BME280;14306;49.942;11.570;2023-04-24T04:14:15;96414.72;;;11.89;93.01
1371;BME280;14306;49.942;11.570;2023-04-24T04:16:43;96412.91;;;11.81;92.92
1371;BME280;14306;49.942;11.570;2023-04-24T04:19:12;96415.88;;;12.13;92.60
1371;BME280;14306;49.942;11.570;2023-04-24T04:21:41;96415.69;;;12.18;91.78
1371;BME280;14306;49.942;11.570;2023-04-24T04:24:09;96409.91;;;12.31;91.10
1371;BME280;14306;49.942;11.570;2023-04-24T04:26:37;96411.97;;;12.34;91.34
1371;BME280;14306;49.942;11.570;2023-04-24T04:29:06;96414.53;;;12.07;91.75
1371;BME280;14306;49.942;11.570;2023-04-24T04:31:36;96406.16;;;12.12;91.81
1371;BME280;14306;49.942;11.570;2023-04-24T04:34:04;96410.56;;;11.92;91.40
1371;BME280;14306;49.942;11.570;2023-04-24T04:36:33;96420.22;;;12.14;91.62
1371;BME280;14306;49.942;11.570;2023-04-24T04:39:03;96421.34;;;12.37;90.57
1371;BME280;14306;49.942;11.570;2023-04-24T04:41:32;96415.78;;;12.45;89.78
1371;BME280;14306;49.942;11.570;2023-04-24T04:44:02;96421.44;;;12.52;90.03
1371;BME280;14306;49.942;11.570;2023-04-24T04:46:31;96421.69;;;12.47;89.73
1371;BME280;14306;49.942;11.570;2023-04-24T04:49:02;96425.88;;;12.57;89.15
1371;BME280;14306;49.942;11.570;2023-04-24T04:51:31;96423.59;;;12.59;88.75
1371;BME280;14306;49.942;11.570;2023-04-24T04:53:59;96419.97;;;12.55;88.92
1371;BME280;14306;49.942;11.570;2023-04-24T04:56:28;96422.25;;;12.53;88.61
1371;BME280;14306;49.942;11.570;2023-04-24T04:58:56;96421.09;;;12.54;88.58
1371;BME280;14306;49.942;11.570;2023-04-24T05:01:25;96418.16;;;12.47;87.62
1371;BME280;14306;49.942;11.570;2023-04-24T05:03:54;96425.19;;;12.60;87.61
1371;BME280;14306;49.942;11.570;2023-04-24T05:06:24;96422.81;;;12.58;87.32
1371;BME280;14306;49.942;11.570;2023-04-24T05:08:52;96427.88;;;12.84;87.08
1371;BME280;14306;49.942;11.570;2023-04-24T05:11:24;96426.63;;;12.81;86.62
1371;BME280;14306;49.942;11.570;2023-04-24T05:13:52;96418.25;;;12.86;86.44
1371;BME280;14306;49.942;11.570;2023-04-24T05:16:21;96430.00;;;12.90;86.15
1371;BME280;14306;49.942;11.570;2023-04-24T05:18:50;96440.91;;;12.78;85.88
1371;BME280;14306;49.942;11.570;2023-04-24T05:21:19;96448.44;;;12.97;86.18
1371;BME280;14306;49.942;11.570;2023-04-24T05:23:49;96438.97;;;13.03;85.38
1371;BME280;14306;49.942;11.570;2023-04-24T05:26:17;96434.53;;;13.10;85.18
1371;BME280;14306;49.942;11.570;2023-04-24T05:28:46;96438.72;;;13.08;84.64
1371;BME280;14306;49.942;11.570;2023-04-24T05:31:15;96440.88;;;13.14;84.83
1371;BME280;14306;49.942;11.570;2023-04-24T05:33:44;96443.06;;;13.09;84.42
1371;BME280;14306;49.942;11.570;2023-04-24T05:36:13;96450.63;;;13.15;83.99
1371;BME280;14306;49.942;11.570;2023-04-24T05:38:42;96447.28;;;13.34;83.53
1371;BME280;14306;49.942;11.570;2023-04-24T05:41:11;96456.00;;;13.67;84.15
1371;BME280;14306;49.942;11.570;2023-04-24T05:43:40;96453.13;;;14.18;81.59
1371;BME280;14306;49.942;11.570;2023-04-24T05:46:08;96457.50;;;14.07;81.79
1371;BME280;14306;49.942;11.570;2023-04-24T05:48:37;96457.38;;;14.47;81.13
1371;BME280;14306;49.942;11.570;2023-04-24T05:51:06;96458.75;;;14.87;78.71
1371;BME280;14306;49.942;11.570;2023-04-24T05:53:34;96458.50;;;14.77;78.47
1371;BME280;14306;49.942;11.570;2023-04-24T05:56:03;96458.50;;;14.77;80.00
1371;BME280;14306;49.942;11.570;2023-04-24T05:58:33;96465.28;;;15.17;78.75
1371;BME280;14306;49.942;11.570;2023-04-24T06:01:03;96459.41;;;15.34;78.15
1371;BME280;14306;49.942;11.570;2023-04-24T06:03:35;96463.97;;;15.46;77.10
1371;BME280;14306;49.942;11.570;2023-04-24T06:06:06;96456.91;;;15.45;76.24
1371;BME280;14306;49.942;11.570;2023-04-24T06:08:35;96455.91;;;15.53;77.76
1371;BME280;14306;49.942;11.570;2023-04-24T06:11:04;96452.09;;;15.96;75.75
1371;BME280;14306;49.942;11.570;2023-04-24T06:13:34;96455.69;;;16.41;74.82
1371;BME280;14306;49.942;11.570;2023-04-24T06:16:03;96451.97;;;16.75;73.99
1371;BME280;14306;49.942;11.570;2023-04-24T06:18:32;96450.59;;;16.62;71.75
1371;BME280;14306;49.942;11.570;2023-04-24T06:21:00;96454.03;;;16.82;72.29
1371;BME280;14306;49.942;11.570;2023-04-24T06:23:28;96458.97;;;17.25;72.29
1371;BME280;14306;49.942;11.570;2023-04-24T06:25:59;96462.44;;;16.96;73.86
1371;BME280;14306;49.942;11.570;2023-04-24T06:28:28;96460.97;;;17.02;71.85
1371;BME280;14306;49.942;11.570;2023-04-24T06:30:57;96453.34;;;17.14;72.78
1371;BME280;14306;49.942;11.570;2023-04-24T06:33:26;96453.31;;;17.99;70.08
1371;BME280;14306;49.942;11.570;2023-04-24T06:35:55;96454.00;;;18.29;68.00
1371;BME280;14306;49.942;11.570;2023-04-24T06:38:24;96458.81;;;18.39;68.86
1371;BME280;14306;49.942;11.570;2023-04-24T06:40:52;96447.47;;;18.37;67.77
1371;BME280;14306;49.942;11.570;2023-04-24T06:43:22;96440.50;;;18.10;65.53
1371;BME280;14306;49.942;11.570;2023-04-24T06:45:51;96439.06;;;17.87;70.84
1371;BME280;14306;49.942;11.570;2023-04-24T06:48:21;96430.66;;;18.06;68.81
1371;BME280;14306;49.942;11.570;2023-04-24T06:50:49;96432.38;;;17.51;69.22
1371;BME280;14306;49.942;11.570;2023-04-24T06:53:18;96441.38;;;17.52;70.75
1371;BME280;14306;49.942;11.570;2023-04-24T06:55:47;96436.72;;;17.00;71.14
1371;BME280;14306;49.942;11.570;2023-04-24T06:58:15;96438.19;;;16.68;69.15
1371;BME280;14306;49.942;11.570;2023-04-24T07:00:44;96441.75;;;16.98;70.85
1371;BME280;14306;49.942;11.570;2023-04-24T07:03:13;96427.34;;;16.49;72.64
1371;BME280;14306;49.942;11.570;2023-04-24T07:05:43;96447.44;;;16.19;76.69
1371;BME280;14306;49.942;11.570;2023-04-24T07:08:13;96449.69;;;15.52;77.17
1371;BME280;14306;49.942;11.570;2023-04-24T07:10:44;96456.81;;;15.22;80.85
1371;BME280;14306;49.942;11.570;2023-04-24T07:13:12;96459.91;;;14.86;81.97
1371;BME280;14306;49.942;11.570;2023-04-24T07:15:41;96469.28;;;14.89;81.80
1371;BME280;14306;49.942;11.570;2023-04-24T07:18:09;96466.50;;;14.70;82.56
1371;BME280;14306;49.942;11.570;2023-04-24T07:20:38;96458.78;;;14.56;83.98
1371;BME280;14306;49.942;11.570;2023-04-24T07:23:08;96463.31;;;14.68;85.16
1371;BME280;14306;49.942;11.570;2023-04-24T07:25:37;96461.81;;;14.86;85.07
1371;BME280;14306;49.942;11.570;2023-04-24T07:28:06;96465.97;;;15.14;85.69
1371;BME280;14306;49.942;11.570;2023-04-24T07:30:34;96453.94;;;15.50;85.80
1371;BME280;14306;49.942;11.570;2023-04-24T07:33:03;96461.63;;;15.83;84.69
1371;BME280;14306;49.942;11.570;2023-04-24T07:35:33;96456.59;;;16.71;83.06
1371;BME280;14306;49.942;11.570;2023-04-24T07:38:02;96440.06;;;16.64;80.03
1371;BME280;14306;49.942;11.570;2023-04-24T07:40:31;96457.44;;;17.53;81.23
1371;BME280;14306;49.942;11.570;2023-04-24T07:43:00;96456.13;;;17.73;76.32
1371;BME280;14306;49.942;11.570;2023-04-24T07:45:31;96467.56;;;18.95;74.46
1371;BME280;14306;49.942;11.570;2023-04-24T07:48:03;96477.34;;;19.47;66.09
1371;BME280;14306;49.942;11.570;2023-04-24T07:50:32;96469.44;;;20.14;68.82
1371;BME280;14306;49.942;11.570;2023-04-24T07:53:01;96482.44;;;19.45;66.77
1371;BME280;14306;49.942;11.570;2023-04-24T07:55:31;96482.47;;;20.34;65.04
1371;BME280;14306;49.942;11.570;2023-04-24T07:58:01;96482.00;;;20.11;64.64
1371;BME280;14306;49.942;11.570;2023-04-24T08:00:30;96494.41;;;19.81;65.28
1371;BME280;14306;49.942;11.570;2023-04-24T08:02:58;96469.69;;;18.32;62.92
1371;BME280;14306;49.942;11.570;2023-04-24T08:05:28;96491.63;;;18.32;62.89
1371;BME280;14306;49.942;11.570;2023-04-24T08:07:56;96483.53;;;17.21;65.65
1371;BME280;14306;49.942;11.570;2023-04-24T08:10:25;96493.72;;;17.21;65.90
1371;BME280;14306;49.942;11.570;2023-04-24T08:12:55;96490.25;;;16.98;66.76
1371;BME280;14306;49.942;11.570;2023-04-24T08:15:23;96506.66;;;18.82;61.95
1371;BME280;14306;49.942;11.570;2023-04-24T08:17:53;96519.00;;;19.56;57.31
1371;BME280;14306;49.942;11.570;2023-04-24T08:20:24;96555.75;;;21.58;51.00
1371;BME280;14306;49.942;11.570;2023-04-24T08:22:53;96538.81;;;21.03;51.95
1371;BME280;14306;49.942;11.570;2023-04-24T08:25:22;96533.31;;;21.03;55.63
1371;BME280;14306;49.942;11.570;2023-04-24T08:27:52;96543.91;;;21.01;51.37
1371;BME280;14306;49.942;11.570;2023-04-24T08:30:23;96508.00;;;19.56;52.54
1371;BME280;14306;49.942;11.570;2023-04-24T08:32:53;96503.97;;;19.40;51.10
1371;BME280;14306;49.942;11.570;2023-04-24T08:35:22;96526.63;;;19.84;50.60
1371;BME280;14306;49.942;11.570;2023-04-24T08:37:52;96511.97;;;19.66;49.90
1371;BME280;14306;49.942;11.570;2023-04-24T08:40:28;96524.59;;;19.70;49.50
1371;BME280;14306;49.942;11.570;2023-04-24T08:42:58;96537.81;;;20.19;49.58
1371;BME280;14306;49.942;11.570;2023-04-24T08:45:29;96526.19;;;19.82;47.68
1371;BME280;14306;49.942;11.570;2023-04-24T08:47:57;96554.56;;;21.27;46.63
1371;BME280;14306;49.942;11.570;2023-04-24T08:50:27;96557.31;;;21.13;46.56
1371;BME280;14306;49.942;11.570;2023-04-24T08:52:58;96564.38;;;21.53;45.12
1371;BME280;14306;49.942;11.570;2023-04-24T08:55:31;96572.28;;;21.51;46.02
1371;BME280;14306;49.942;11.570;2023-04-24T08:58:02;96573.84;;;21.59;44.24
1371;BME280;14306;49.942;11.570;2023-04-24T09:00:38;96585.56;;;22.19;44.23
1371;BME280;14306;49.942;11.570;2023-04-24T09:03:14;96602.53;;;23.07;40.84
1371;BME280;14306;49.942;11.570;2023-04-24T09:05:46;96590.94;;;22.61;41.31
1371;BME280;14306;49.942;11.570;2023-04-24T09:08:18;96611.88;;;23.34;39.85
1371;BME280;14306;49.942;11.570;2023-04-24T09:10:47;96580.13;;;21.94;41.57
1371;BME280;14306;49.942;11.570;2023-04-24T09:13:17;96617.66;;;22.85;40.67
1371;BME280;14306;49.942;11.570;2023-04-24T09:15:49;96622.94;;;23.78;37.99
1371;BME280;14306;49.942;11.570;2023-04-24T09:18:19;96621.38;;;23.77;37.83
1371;BME280;14306;49.942;11.570;2023-04-24T09:20:57;96608.00;;;23.14;38.31
1371;BME280;14306;49.942;11.570;2023-04-24T09:23:28;96593.03;;;22.22;40.25
1371;BME280;14306;49.942;11.570;2023-04-24T09:25:57;96586.47;;;21.74;40.79
1371;BME280;14306;49.942;11.570;2023-04-24T09:28:29;96554.41;;;20.47;41.17
1371;BME280;14306;49.942;11.570;2023-04-24T09:31:08;96553.94;;;20.27;40.15
1371;BME280;14306;49.942;11.570;2023-04-24T09:33:36;96537.47;;;19.56;42.07
1371;BME280;14306;49.942;11.570;2023-04-24T09:36:06;96536.59;;;19.45;42.13
1371;BME280;14306;49.942;11.570;2023-04-24T09:38:34;96517.88;;;18.66;43.28
1371;BME280;14306;49.942;11.570;2023-04-24T09:41:05;96515.28;;;18.40;43.95
1371;BME280;14306;49.942;11.570;2023-04-24T09:43:35;96514.13;;;18.12;44.75
1371;BME280;14306;49.942;11.570;2023-04-24T09:46:08;96532.16;;;18.82;44.97
1371;BME280;14306;49.942;11.570;2023-04-24T09:48:37;96551.59;;;19.58;42.16
1371;BME280;14306;49.942;11.570;2023-04-24T09:51:07;96575.31;;;20.79;41.35
1371;BME280;14306;49.942;11.570;2023-04-24T09:53:38;96570.13;;;20.50;41.62
1371;BME280;14306;49.942;11.570;2023-04-24T09:56:08;96563.00;;;20.35;41.24
1371;BME280;14306;49.942;11.570;2023-04-24T09:58:39;96557.69;;;19.95;41.32
1371;BME280;14306;49.942;11.570;2023-04-24T10:01:09;96570.28;;;20.95;40.22
1371;BME280;14306;49.942;11.570;2023-04-24T10:03:37;96576.19;;;21.25;38.55
1371;BME280;14306;49.942;11.570;2023-04-24T10:06:06;96579.31;;;20.92;38.05
1371;BME280;14306;49.942;11.570;2023-04-24T10:08:37;96584.47;;;21.25;38.40
1371;BME280;14306;49.942;11.570;2023-04-24T10:11:06;96578.59;;;21.20;38.58
1371;BME280;14306;49.942;11.570;2023-04-24T10:13:39;96560.59;;;20.23;39.13
1371;BME280;14306;49.942;11.570;2023-04-24T10:16:10;96554.56;;;20.00;39.91
1371;BME280;14306;49.942;11.570;2023-04-24T10:18:40;96559.59;;;19.84;40.34
1371;BME280;14306;49.942;11.570;2023-04-24T10:21:09;96546.28;;;19.28;41.20
1371;BME280;14306;49.942;11.570;2023-04-24T10:23:38;96564.03;;;20.06;39.07
1371;BME280;14306;49.942;11.570;2023-04-24T10:26:09;96577.16;;;20.30;39.18
1371;BME280;14306;49.942;11.570;2023-04-24T10:28:39;96572.69;;;20.08;39.72
1371;BME280;14306;49.942;11.570;2023-04-24T10:31:11;96575.81;;;20.06;39.27
1371;BME280;14306;49.942;11.570;2023-04-24T10:33:41;96577.56;;;20.35;38.89
1371;BME280;14306;49.942;11.570;2023-04-24T10:36:12;96574.44;;;19.69;40.23
1371;BME280;14306;49.942;11.570;2023-04-24T10:38:43;96563.72;;;19.53;40.21
1371;BME280;14306;49.942;11.570;2023-04-24T10:41:18;96553.09;;;19.01;40.21
1371;BME280;14306;49.942;11.570;2023-04-24T10:44:04;96566.91;;;19.11;40.40
1371;BME280;14306;49.942;11.570;2023-04-24T10:46:36;96590.31;;;20.00;38.41
1371;BME280;14306;49.942;11.570;2023-04-24T10:49:06;96584.72;;;19.86;38.71
1371;BME280;14306;49.942;11.570;2023-04-24T10:51:46;96589.88;;;19.91;39.40
1371;BME280;14306;49.942;11.570;2023-04-24T10:54:28;96588.75;;;20.02;39.72
1371;BME280;14306;49.942;11.570;2023-04-24T10:57:25;96580.34;;;19.71;39.75
1371;BME280;14306;49.942;11.570;2023-04-24T11:00:16;96594.03;;;20.25;39.49
1371;BME280;14306;49.942;11.570;2023-04-24T11:02:48;96624.97;;;20.97;38.40
1371;BME280;14306;49.942;11.570;2023-04-24T11:05:21;96618.09;;;20.49;38.38
1371;BME280;14306;49.942;11.570;2023-04-24T11:08:12;96600.28;;;19.57;40.95
1371;BME280;14306;49.942;11.570;2023-04-24T11:10:44;96566.78;;;18.57;42.21
1371;BME280;14306;49.942;11.570;2023-04-24T11:13:15;96594.34;;;19.11;41.84
1371;BME280;14306;49.942;11.570;2023-04-24T11:15:44;96591.25;;;18.40;43.73
1371;BME280;14306;49.942;11.570;2023-04-24T11:18:15;96563.75;;;17.25;45.72
1371;BME280;14306;49.942;11.570;2023-04-24T11:20:44;96560.84;;;17.15;45.50
1371;BME280;14306;49.942;11.570;2023-04-24T11:23:13;96584.50;;;18.04;44.52
1371;BME280;14306;49.942;11.570;2023-04-24T11:25:42;96596.59;;;18.99;42.22
1371;BME280;14306;49.942;11.570;2023-04-24T11:28:14;96646.16;;;20.07;40.38
1371;BME280;14306;49.942;11.570;2023-04-24T11:30:44;96639.94;;;20.14;39.22
1371;BME280;14306;49.942;11.570;2023-04-24T11:33:21;96670.63;;;21.05;37.22
1371;BME280;14306;49.942;11.570;2023-04-24T11:35:53;96648.09;;;20.75;36.11
1371;BME280;14306;49.942;11.570;2023-04-24T11:38:28;96651.34;;;21.08;36.00
1371;BME280;14306;49.942;11.570;2023-04-24T11:41:02;96699.06;;;22.49;34.09
1371;BME280;14306;49.942;11.570;2023-04-24T11:43:32;96671.47;;;21.37;34.48
1371;BME280;14306;49.942;11.570;2023-04-24T11:46:02;96692.75;;;22.48;33.22
1371;BME280;14306;49.942;11.570;2023-04-24T11:48:35;96721.69;;;23.30;31.09
1371;BME280;14306;49.942;11.570;2023-04-24T11:51:07;96689.56;;;22.46;32.30
1371;BME280;14306;49.942;11.570;2023-04-24T11:53:36;96686.34;;;22.76;32.54
1371;BME280;14306;49.942;11.570;2023-04-24T11:56:05;96699.75;;;22.81;33.19
1371;BME280;14306;49.942;11.570;2023-04-24T11:58:35;96684.81;;;22.61;33.72
1371;BME280;14306;49.942;11.570;2023-04-24T12:01:04;96702.34;;;23.20;33.00
1371;BME280;14306;49.942;11.570;2023-04-24T12:03:32;96709.41;;;23.31;31.83
1371;BME280;14306;49.942;11.570;2023-04-24T12:06:10;96689.50;;;22.75;32.68
1371;BME280;14306;49.942;11.570;2023-04-24T12:08:38;96689.56;;;22.46;33.41
1371;BME280;14306;49.942;11.570;2023-04-24T12:11:07;96714.72;;;22.91;32.65
1371;BME280;14306;49.942;11.570;2023-04-24T12:13:36;96695.56;;;22.13;32.89
1371;BME280;14306;49.942;11.570;2023-04-24T12:16:04;96680.19;;;21.95;33.54
1371;BME280;14306;49.942;11.570;2023-04-24T12:18:33;96663.72;;;20.57;35.86
1371;BME280;14306;49.942;11.570;2023-04-24T12:21:27;96649.97;;;20.60;35.54
1371;BME280;14306;49.942;11.570;2023-04-24T12:23:57;96658.66;;;20.66;36.11
1371;BME280;14306;49.942;11.570;2023-04-24T12:26:27;96624.44;;;19.41;38.59
1371;BME280;14306;49.942;11.570;2023-04-24T12:28:55;96621.59;;;19.27;39.78
1371;BME280;14306;49.942;11.570;2023-04-24T12:31:29;96620.06;;;18.93;40.56
1371;BME280;14306;49.942;11.570;2023-04-24T12:33:58;96589.09;;;18.26;41.30
1371;BME280;14306;49.942;11.570;2023-04-24T12:36:28;96628.13;;;19.15;40.09
1371;BME280;14306;49.942;11.570;2023-04-24T12:38:57;96607.88;;;18.90;40.89
1371;BME280;14306;49.942;11.570;2023-04-24T12:41:25;96606.38;;;18.96;40.52
1371;BME280;14306;49.942;11.570;2023-04-24T12:43:54;96659.44;;;20.63;38.00
1371;BME280;14306;49.942;11.570;2023-04-24T12:46:23;96659.94;;;20.93;36.78
1371;BME280;14306;49.942;11.570;2023-04-24T12:48:51;96645.81;;;20.98;36.53
1371;BME280;14306;49.942;11.570;2023-04-24T12:51:19;96630.72;;;20.60;37.20
1371;BME280;14306;49.942;11.570;2023-04-24T12:53:51;96638.25;;;20.81;36.11
1371;BME280;14306;49.942;11.570;2023-04-24T12:56:22;96656.88;;;21.08;36.24
1371;BME280;14306;49.942;11.570;2023-04-24T12:58:50;96647.53;;;20.38;37.53
1371;BME280;14306;49.942;11.570;2023-04-24T13:01:19;96637.56;;;20.16;36.99
1371;BME280;14306;49.942;11.570;2023-04-24T13:03:47;96621.31;;;19.43;37.96
1371;BME280;14306;49.942;11.570;2023-04-24T13:06:16;96630.81;;;19.49;37.73
1371;BME280;14306;49.942;11.570;2023-04-24T13:08:44;96627.28;;;19.08;38.74
1371;BME280;14306;49.942;11.570;2023-04-24T13:11:15;96628.59;;;18.84;39.17
1371;BME280;14306;49.942;11.570;2023-04-24T13:13:44;96615.84;;;18.07;40.78